createdAt,value
2018-03-21T00:02:26.765Z,25.67
2018-03-21T00:04:54.228Z,25.07
2018-03-21T00:07:22.457Z,25.97
2018-03-21T00:09:49.931Z,25.20
2018-03-21T00:12:17.388Z,25.13
2018-03-21T00:14:44.866Z,26.27
2018-03-21T00:17:12.318Z,24.40
2018-03-21T00:19:39.787Z,25.77
2018-03-21T00:22:07.257Z,24.03
2018-03-21T00:24:35.483Z,24.73
2018-03-21T00:27:02.940Z,24.40
2018-03-21T00:29:30.408Z,23.13
2018-03-21T00:31:57.867Z,23.80
2018-03-21T00:34:25.344Z,23.03
2018-03-21T00:36:52.793Z,23.30
2018-03-21T00:39:20.259Z,22.77
2018-03-21T00:41:47.708Z,22.67
2018-03-21T00:44:15.178Z,23.80
2018-03-21T00:46:42.629Z,23.50
2018-03-21T00:49:10.104Z,21.53
2018-03-21T00:51:38.327Z,23.80
2018-03-21T00:54:05.796Z,22.30
2018-03-21T00:56:33.257Z,21.90
2018-03-21T00:59:00.719Z,21.30
2018-03-21T01:01:28.177Z,22.90
2018-03-21T01:03:55.654Z,21.07
2018-03-21T01:06:23.113Z,20.30
2018-03-21T01:08:50.581Z,20.37
2018-03-21T01:11:18.812Z,18.80
2018-03-21T01:13:46.275Z,19.70
2018-03-21T01:16:13.738Z,21.30
2018-03-21T01:18:41.216Z,21.40
2018-03-21T01:21:08.669Z,19.10
2018-03-21T01:23:36.148Z,18.63
2018-03-21T01:26:04.383Z,19.27
2018-03-21T01:28:31.856Z,18.73
2018-03-21T01:30:59.324Z,18.93
2018-03-21T01:33:26.791Z,17.70
2018-03-21T01:35:55.032Z,20.20
2018-03-21T01:38:22.493Z,18.10
2018-03-21T01:40:49.965Z,19.23
2018-03-21T01:43:17.422Z,18.43
2018-03-21T01:45:44.939Z,17.33
2018-03-21T01:48:12.392Z,20.33
2018-03-21T01:50:39.865Z,17.73
2018-03-21T01:53:10.279Z,17.10
2018-03-21T01:55:37.769Z,16.03
2018-03-21T01:58:05.216Z,16.40
2018-03-21T02:00:32.687Z,14.60
2018-03-21T02:03:02.861Z,13.80
2018-03-21T02:05:30.331Z,15.63
2018-03-21T02:07:57.793Z,13.50
2018-03-21T02:10:25.272Z,16.53
2018-03-21T02:12:52.740Z,14.90
2018-03-21T02:15:20.242Z,15.17
2018-03-21T02:17:47.696Z,14.87
2018-03-21T02:20:15.160Z,13.67
2018-03-21T02:22:42.628Z,13.77
2018-03-21T02:25:10.099Z,14.20
2018-03-21T02:27:37.556Z,13.83
2018-03-21T02:30:05.025Z,14.27
2018-03-21T02:32:32.488Z,13.53
2018-03-21T02:34:59.952Z,14.77
2018-03-21T02:37:27.411Z,15.40
2018-03-21T02:39:54.894Z,15.33
2018-03-21T02:42:23.113Z,13.23
2018-03-21T02:44:50.580Z,16.80
2018-03-21T02:47:18.047Z,14.87
2018-03-21T02:49:45.521Z,14.40
2018-03-21T02:52:12.977Z,16.70
2018-03-21T02:54:40.443Z,15.63
2018-03-21T02:57:07.904Z,16.07
2018-03-21T02:59:35.379Z,13.13
2018-03-21T03:02:03.606Z,15.27
2018-03-21T03:04:31.089Z,13.90
2018-03-21T03:06:58.545Z,13.63
2018-03-21T03:09:26.008Z,13.30
2018-03-21T03:11:53.473Z,12.50
2018-03-21T03:14:21.700Z,12.93
2018-03-21T03:16:49.173Z,12.70
2018-03-21T03:19:16.635Z,14.40
2018-03-21T03:21:44.111Z,13.80
2018-03-21T03:24:11.565Z,13.27
2018-03-21T03:26:39.040Z,12.70
2018-03-21T03:29:06.494Z,12.50
2018-03-21T03:31:33.965Z,13.03
2018-03-21T03:34:02.201Z,13.70
2018-03-21T03:36:29.664Z,13.80
2018-03-21T03:38:57.120Z,13.63
2018-03-21T03:41:24.594Z,13.33
2018-03-21T03:43:52.040Z,13.23
2018-03-21T03:46:19.499Z,14.03
2018-03-21T03:48:46.960Z,15.67
2018-03-21T03:51:14.433Z,13.03
2018-03-21T03:53:42.665Z,15.37
2018-03-21T03:56:10.140Z,15.00
2018-03-21T03:58:37.591Z,13.30
2018-03-21T04:01:05.059Z,14.87
2018-03-21T04:03:32.513Z,14.67
2018-03-21T04:05:59.991Z,14.73
2018-03-21T04:08:27.456Z,13.60
2018-03-21T04:10:55.686Z,11.40
2018-03-21T04:13:23.145Z,12.10
2018-03-21T04:15:50.623Z,12.07
2018-03-21T04:18:18.073Z,10.50
2018-03-21T04:20:45.548Z,12.33
2018-03-21T04:23:13.004Z,12.20
2018-03-21T04:25:40.486Z,11.47
2018-03-21T04:28:08.710Z,12.07
2018-03-21T04:30:36.186Z,12.73
2018-03-21T04:33:03.659Z,13.50
2018-03-21T04:35:31.136Z,13.00
2018-03-21T04:37:59.363Z,12.10
2018-03-21T04:40:26.840Z,13.37
2018-03-21T04:42:54.303Z,11.53
2018-03-21T04:45:21.764Z,11.97
2018-03-21T04:47:49.259Z,12.60
2018-03-21T04:50:16.718Z,12.17
2018-03-21T04:52:44.188Z,12.17
2018-03-21T04:55:11.660Z,13.30
2018-03-21T04:57:39.140Z,11.83
2018-03-21T05:00:06.597Z,12.10
2018-03-21T05:02:34.076Z,13.20
2018-03-21T05:05:02.308Z,12.80
2018-03-21T05:07:29.780Z,12.87
2018-03-21T05:09:57.237Z,11.90
2018-03-21T05:12:24.823Z,12.43
2018-03-21T05:14:53.061Z,11.90
2018-03-21T05:17:20.536Z,12.20
2018-03-21T05:19:48.008Z,12.10
2018-03-21T05:22:15.473Z,11.47
2018-03-21T05:24:43.816Z,11.03
2018-03-21T05:27:11.292Z,11.30
2018-03-21T05:29:38.752Z,8.50
2018-03-21T05:32:06.234Z,8.50
2018-03-21T05:34:34.448Z,9.53
2018-03-21T05:37:01.922Z,9.13
2018-03-21T05:39:29.376Z,8.67
2018-03-21T05:41:56.851Z,9.63
2018-03-21T05:44:24.322Z,9.00
2018-03-21T05:46:51.796Z,9.90
2018-03-21T05:49:20.029Z,8.97
2018-03-21T05:51:47.492Z,9.40
2018-03-21T05:54:14.956Z,9.47
2018-03-21T05:56:42.428Z,8.23
2018-03-21T05:59:09.888Z,7.07
2018-03-21T06:01:37.352Z,7.53
2018-03-21T06:04:05.573Z,7.60
2018-03-21T06:06:33.051Z,7.27
2018-03-21T06:09:00.516Z,6.90
2018-03-21T06:11:27.975Z,6.23
2018-03-21T06:13:55.458Z,7.67
2018-03-21T06:16:23.707Z,7.60
2018-03-21T06:21:25.066Z,5.80
2018-03-21T06:23:52.532Z,5.80
2018-03-21T06:26:20.005Z,6.30
2018-03-21T06:28:47.495Z,6.47
2018-03-21T06:31:14.963Z,5.40
2018-03-21T06:33:42.447Z,5.70
2018-03-21T06:36:09.910Z,4.80
2018-03-21T06:38:37.372Z,6.17
2018-03-21T06:41:04.829Z,5.60
2018-03-21T06:43:32.306Z,5.07
2018-03-21T06:45:59.760Z,5.40
2018-03-21T06:48:27.224Z,5.40
2018-03-21T06:50:54.671Z,5.63
2018-03-21T06:53:22.138Z,5.30
2018-03-21T06:55:49.584Z,4.77
2018-03-21T06:58:17.047Z,5.60
2018-03-21T07:00:44.498Z,6.17
2018-03-21T07:03:11.960Z,5.33
2018-03-21T07:05:39.412Z,6.13
2018-03-21T07:08:06.875Z,5.20
2018-03-21T07:10:34.320Z,5.97
2018-03-21T07:13:01.781Z,6.00
2018-03-21T07:15:41.237Z,6.40
2018-03-21T07:18:08.704Z,6.23
2018-03-21T07:20:36.932Z,5.70
2018-03-21T07:23:04.411Z,5.97
2018-03-21T07:25:32.619Z,5.83
2018-03-21T07:28:00.848Z,5.40
2018-03-21T07:30:28.311Z,6.07
2018-03-21T07:32:56.543Z,5.30
2018-03-21T07:35:23.992Z,5.20
2018-03-21T07:37:51.470Z,5.40
2018-03-21T07:40:18.924Z,4.97
2018-03-21T07:42:46.387Z,5.40
2018-03-21T07:45:13.848Z,5.10
2018-03-21T07:47:41.316Z,4.63
2018-03-21T07:50:08.772Z,5.17
2018-03-21T07:52:36.230Z,5.20
2018-03-21T07:55:03.684Z,5.83
2018-03-21T07:57:31.146Z,5.10
2018-03-21T07:59:58.615Z,6.23
2018-03-21T08:02:26.086Z,5.23
2018-03-21T08:04:53.543Z,4.73
2018-03-21T08:07:20.992Z,5.23
2018-03-21T08:09:48.465Z,5.80
2018-03-21T08:12:15.924Z,4.90
2018-03-21T08:14:43.398Z,5.23
2018-03-21T08:17:11.613Z,5.27
2018-03-21T08:19:39.136Z,11.60
2018-03-21T08:22:07.371Z,5.40
2018-03-21T08:24:34.838Z,8.60
2018-03-21T08:27:02.288Z,5.33
2018-03-21T08:29:29.776Z,5.83
2018-03-21T08:31:58.008Z,6.67
2018-03-21T08:34:25.523Z,6.73
2018-03-21T08:36:52.967Z,6.43
2018-03-21T08:39:20.445Z,4.83
2018-03-21T08:41:47.928Z,4.83
2018-03-21T08:44:15.398Z,4.90
2018-03-21T08:46:42.857Z,4.87
2018-03-21T08:49:10.328Z,4.83
2018-03-21T08:51:37.784Z,4.67
2018-03-21T08:54:05.245Z,4.77
2018-03-21T08:56:32.699Z,4.43
2018-03-21T08:59:00.165Z,4.73
2018-03-21T09:01:27.671Z,4.83
2018-03-21T09:03:55.091Z,5.30
2018-03-21T09:06:23.131Z,5.17
2018-03-21T09:08:50.606Z,4.90
2018-03-21T09:11:18.059Z,4.83
2018-03-21T09:13:45.517Z,5.50
2018-03-21T09:16:12.987Z,5.07
2018-03-21T09:18:40.440Z,5.23
2018-03-21T09:21:07.929Z,5.50
2018-03-21T09:23:36.150Z,5.43
2018-03-21T09:26:03.650Z,5.43
2018-03-21T09:28:31.105Z,5.70
2018-03-21T09:30:59.347Z,5.03
2018-03-21T09:33:26.803Z,5.47
2018-03-21T09:35:54.276Z,4.90
2018-03-21T09:38:21.741Z,4.80
2018-03-21T09:40:49.223Z,6.03
2018-03-21T09:43:17.452Z,5.10
2018-03-21T09:45:44.944Z,4.97
2018-03-21T09:48:13.172Z,5.27
2018-03-21T09:50:40.674Z,4.80
2018-03-21T09:53:08.125Z,5.47
2018-03-21T09:55:35.599Z,7.50
2018-03-21T09:58:03.063Z,5.10
2018-03-21T10:00:30.527Z,4.57
2018-03-21T10:02:58.000Z,5.40
2018-03-21T10:05:25.480Z,5.20
2018-03-21T10:07:52.936Z,5.73
2018-03-21T10:10:20.396Z,5.23
2018-03-21T10:12:47.857Z,5.10
2018-03-21T10:15:15.320Z,5.33
2018-03-21T10:17:42.787Z,5.60
2018-03-21T10:20:10.267Z,4.90
2018-03-21T10:22:37.721Z,4.60
2018-03-21T10:25:05.195Z,5.37
2018-03-21T10:27:33.431Z,5.20
2018-03-21T10:30:00.905Z,5.10
2018-03-21T10:32:28.357Z,4.40
2018-03-21T10:34:55.832Z,4.83
2018-03-21T10:37:24.064Z,4.60
2018-03-21T10:39:51.516Z,5.23
2018-03-21T10:42:18.984Z,4.10
2018-03-21T10:44:46.650Z,5.17
2018-03-21T10:47:14.127Z,4.20
2018-03-21T10:49:41.580Z,4.07
2018-03-21T10:52:09.052Z,4.53
2018-03-21T10:54:37.284Z,6.43
2018-03-21T10:57:04.801Z,4.90
2018-03-21T10:59:33.024Z,4.40
2018-03-21T11:02:06.232Z,3.67
2018-03-21T11:04:34.393Z,4.03
2018-03-21T11:07:02.104Z,4.37
2018-03-21T11:09:30.325Z,3.63
2018-03-21T11:11:57.829Z,3.00
2018-03-21T11:14:25.274Z,3.77
2018-03-21T11:16:52.744Z,3.70
2018-03-21T11:19:21.031Z,3.23
2018-03-21T11:21:48.451Z,3.53
2018-03-21T11:24:15.908Z,3.40
2018-03-21T11:26:43.377Z,3.37
2018-03-21T11:29:10.829Z,3.13
2018-03-21T11:31:38.291Z,3.87
2018-03-21T11:34:05.797Z,3.23
2018-03-21T11:36:34.023Z,3.70
2018-03-21T11:39:01.532Z,3.73
2018-03-21T11:41:28.976Z,6.97
2018-03-21T11:43:56.443Z,3.80
2018-03-21T11:46:23.921Z,3.80
2018-03-21T11:48:51.379Z,3.40
2018-03-21T11:51:18.840Z,3.30
2018-03-21T11:53:46.303Z,3.23
2018-03-21T11:56:13.778Z,2.87
2018-03-21T11:58:41.252Z,2.90
2018-03-21T12:01:08.700Z,2.87
2018-03-21T12:03:36.177Z,2.90
2018-03-21T12:06:04.420Z,4.50
2018-03-21T12:08:31.949Z,49.80
2018-03-21T12:11:00.149Z,13.23
2018-03-21T12:13:27.632Z,6.10
2018-03-21T12:15:55.093Z,10.60
2018-03-21T12:18:22.561Z,6.53
2018-03-21T12:20:50.787Z,8.83
2018-03-21T12:23:18.256Z,5.97
2018-03-21T12:25:45.713Z,5.47
2018-03-21T12:28:13.202Z,3.40
2018-03-21T12:30:40.655Z,3.30
2018-03-21T12:33:08.120Z,3.10
2018-03-21T12:35:36.360Z,2.60
2018-03-21T12:38:03.819Z,3.07
2018-03-21T12:40:31.272Z,3.07
2018-03-21T12:42:58.750Z,2.77
2018-03-21T12:45:26.200Z,2.97
2018-03-21T12:47:53.664Z,3.00
2018-03-21T12:50:21.117Z,2.50
2018-03-21T12:52:48.587Z,3.00
2018-03-21T12:55:16.813Z,2.60
2018-03-21T12:57:44.276Z,3.00
2018-03-21T13:00:11.732Z,2.73
2018-03-21T13:02:39.192Z,3.13
2018-03-21T13:05:06.646Z,2.90
2018-03-21T13:07:34.104Z,3.37
2018-03-21T13:10:01.551Z,2.93
2018-03-21T13:12:29.017Z,3.03
2018-03-21T13:14:56.484Z,2.40
2018-03-21T13:17:23.968Z,2.73
2018-03-21T13:19:51.435Z,2.97
2018-03-21T13:22:19.712Z,2.73
2018-03-21T13:24:47.224Z,2.80
2018-03-21T13:27:14.676Z,2.60
2018-03-21T13:29:42.149Z,2.60
2018-03-21T13:32:09.621Z,2.70
2018-03-21T13:34:37.075Z,3.30
2018-03-21T13:37:04.536Z,3.07
2018-03-21T13:39:31.999Z,2.80
2018-03-21T13:41:59.451Z,3.50
2018-03-21T13:44:26.921Z,3.00
2018-03-21T13:46:54.365Z,2.50
2018-03-21T13:49:21.847Z,11.10
2018-03-21T13:51:49.305Z,4.00
2018-03-21T13:54:16.768Z,2.50
2018-03-21T13:56:45.000Z,2.60
2018-03-21T13:59:12.465Z,2.70
2018-03-21T14:01:39.919Z,2.47
2018-03-21T14:04:07.384Z,2.23
2018-03-21T14:06:34.848Z,2.50
2018-03-21T14:09:02.347Z,2.83
2018-03-21T14:11:29.812Z,2.63
2018-03-21T14:13:57.272Z,3.03
2018-03-21T14:16:24.750Z,3.60
2018-03-21T14:18:52.220Z,3.87
2018-03-21T14:21:19.684Z,2.70
2018-03-21T14:23:47.145Z,2.90
2018-03-21T14:26:14.600Z,2.40
2018-03-21T14:28:42.064Z,2.13
2018-03-21T14:31:09.540Z,1.90
2018-03-21T14:33:37.025Z,2.30
2018-03-21T14:36:04.479Z,2.40
2018-03-21T14:38:32.716Z,2.77
2018-03-21T14:41:00.168Z,3.00
2018-03-21T14:43:27.632Z,2.77
2018-03-21T14:45:55.105Z,3.70
2018-03-21T14:48:22.560Z,2.60
2018-03-21T14:50:50.017Z,2.67
2018-03-21T14:53:17.497Z,2.70
2018-03-21T14:55:45.720Z,2.40
2018-03-21T14:58:13.175Z,2.17
2018-03-21T15:00:40.648Z,3.57
2018-03-21T15:03:08.772Z,3.60
2018-03-21T15:05:36.238Z,3.63
2018-03-21T15:08:03.688Z,2.70
2018-03-21T15:10:31.165Z,3.37
2018-03-21T15:12:58.622Z,3.30
2018-03-21T15:15:26.095Z,2.93
2018-03-21T15:17:53.576Z,2.87
2018-03-21T15:20:21.040Z,2.93
2018-03-21T15:22:48.514Z,2.47
2018-03-21T15:25:16.747Z,2.40
2018-03-21T15:27:44.208Z,2.40
2018-03-21T15:30:11.668Z,2.63
2018-03-21T15:32:39.135Z,2.97
2018-03-21T15:35:06.657Z,2.60
2018-03-21T15:37:34.108Z,3.20
2018-03-21T15:40:01.576Z,3.70
2018-03-21T15:42:29.032Z,4.63
2018-03-21T15:44:56.506Z,3.87
2018-03-21T15:47:23.961Z,5.03
2018-03-21T15:49:51.487Z,11.03
2018-03-21T15:52:18.935Z,3.97
2018-03-21T15:54:46.405Z,3.27
2018-03-21T15:57:13.860Z,3.00
2018-03-21T15:59:41.324Z,3.10
2018-03-21T16:02:08.776Z,3.20
2018-03-21T16:04:36.247Z,3.03
2018-03-21T16:07:03.705Z,2.90
2018-03-21T16:09:31.160Z,2.80
2018-03-21T16:11:58.624Z,3.13
2018-03-21T16:14:26.084Z,2.60
2018-03-21T16:16:53.570Z,3.37
2018-03-21T16:19:21.000Z,2.60
2018-03-21T16:21:48.456Z,3.40
2018-03-21T16:24:15.923Z,2.87
2018-03-21T16:26:43.379Z,3.27
2018-03-21T16:29:11.616Z,3.00
2018-03-21T16:31:39.073Z,3.10
2018-03-21T16:34:06.525Z,2.90
2018-03-21T16:36:34.752Z,3.50
2018-03-21T16:39:02.206Z,3.20
2018-03-21T16:41:29.668Z,3.20
2018-03-21T16:43:57.139Z,3.00
2018-03-21T16:46:24.613Z,3.40
2018-03-21T16:48:52.840Z,3.60
2018-03-21T16:51:20.297Z,3.40
2018-03-21T16:53:47.747Z,3.07
2018-03-21T16:56:15.209Z,3.87
2018-03-21T16:58:42.663Z,3.40
2018-03-21T17:01:10.121Z,2.93
2018-03-21T17:03:37.612Z,3.83
2018-03-21T17:06:05.047Z,3.40
2018-03-21T17:08:32.495Z,3.53
2018-03-21T17:10:59.953Z,3.23
2018-03-21T17:13:27.410Z,3.60
2018-03-21T17:15:54.892Z,3.50
2018-03-21T17:18:22.348Z,3.43
2018-03-21T17:20:49.817Z,3.20
2018-03-21T17:23:17.277Z,3.20
2018-03-21T17:25:45.507Z,3.10
2018-03-21T17:28:12.963Z,3.43
2018-03-21T17:30:40.426Z,3.40
2018-03-21T17:33:08.325Z,2.90
2018-03-21T17:35:35.805Z,4.13
2018-03-21T17:38:03.257Z,4.00
2018-03-21T17:40:30.725Z,3.07
2018-03-21T17:42:58.945Z,3.17
2018-03-21T17:45:26.400Z,3.37
2018-03-21T17:47:53.858Z,3.67
2018-03-21T17:50:21.316Z,3.00
2018-03-21T17:52:48.768Z,3.23
2018-03-21T17:55:16.228Z,2.50
2018-03-21T17:57:43.684Z,3.53
2018-03-21T18:00:11.237Z,4.03
2018-03-21T18:02:38.687Z,3.90
2018-03-21T18:05:06.135Z,3.60
2018-03-21T18:07:33.606Z,3.50
2018-03-21T18:10:01.058Z,3.07
2018-03-21T18:12:28.524Z,3.23
2018-03-21T18:14:55.978Z,3.50
2018-03-21T18:17:23.432Z,3.47
2018-03-21T18:19:50.885Z,3.80
2018-03-21T18:22:18.343Z,3.70
2018-03-21T18:24:45.805Z,3.90
2018-03-21T18:27:13.265Z,3.67
2018-03-21T18:29:40.712Z,4.17
2018-03-21T18:32:08.193Z,4.40
2018-03-21T18:34:35.640Z,4.80
2018-03-21T18:37:03.115Z,5.80
2018-03-21T18:39:30.569Z,7.23
2018-03-21T18:41:58.038Z,7.00
2018-03-21T18:44:25.554Z,7.17
2018-03-21T18:46:53.781Z,5.47
2018-03-21T18:49:21.240Z,5.80
2018-03-21T18:51:48.697Z,6.00
2018-03-21T18:54:16.157Z,5.17
2018-03-21T18:56:43.633Z,5.17
2018-03-21T18:59:11.088Z,6.10
2018-03-21T19:01:38.556Z,5.33
2018-03-21T19:04:06.778Z,6.03
2018-03-21T19:06:34.245Z,5.47
2018-03-21T19:09:01.757Z,6.07
2018-03-21T19:11:29.980Z,5.40
2018-03-21T19:13:57.436Z,6.10
2018-03-21T19:16:24.892Z,6.17
2018-03-21T19:18:52.342Z,5.57
2018-03-21T19:21:19.799Z,7.20
2018-03-21T19:23:47.252Z,5.47
2018-03-21T19:26:14.725Z,4.73
2018-03-21T19:28:42.184Z,5.10
2018-03-21T19:31:09.640Z,5.43
2018-03-21T19:33:37.106Z,4.93
2018-03-21T19:36:04.555Z,5.93
2018-03-21T19:38:32.027Z,5.60
2018-03-21T19:40:59.473Z,6.00
2018-03-21T19:43:26.942Z,6.23
2018-03-21T19:45:54.456Z,5.77
2018-03-21T19:48:21.865Z,6.80
2018-03-21T19:50:49.329Z,8.50
2018-03-21T19:53:16.795Z,8.33
2018-03-21T19:55:45.021Z,8.60
2018-03-21T19:58:12.487Z,6.53
2018-03-21T20:00:40.709Z,6.73
2018-03-21T20:03:08.930Z,7.10
2018-03-21T20:05:36.444Z,5.90
2018-03-21T20:08:03.869Z,6.30
2018-03-21T20:10:31.328Z,6.03
2018-03-21T20:12:58.793Z,5.63
2018-03-21T20:15:26.241Z,5.70
2018-03-21T20:17:53.868Z,6.17
2018-03-21T20:20:21.357Z,6.20
2018-03-21T20:22:48.829Z,5.03
2018-03-21T20:25:16.340Z,6.07
2018-03-21T20:27:43.797Z,5.47
2018-03-21T20:30:11.258Z,6.30
2018-03-21T20:32:38.739Z,6.43
2018-03-21T20:35:06.192Z,6.00
2018-03-21T20:37:33.653Z,6.23
2018-03-21T20:40:01.113Z,6.43
2018-03-21T20:42:28.567Z,7.17
2018-03-21T20:44:56.034Z,6.53
2018-03-21T20:47:23.525Z,7.10
2018-03-21T20:49:51.759Z,6.23
2018-03-21T20:52:19.216Z,6.63
2018-03-21T20:54:46.701Z,6.50
2018-03-21T20:57:14.156Z,7.00
2018-03-21T20:59:41.620Z,5.67
2018-03-21T21:02:09.077Z,6.23
2018-03-21T21:04:36.556Z,6.00
2018-03-21T21:07:04.787Z,6.63
2018-03-21T21:09:32.265Z,6.03
2018-03-21T21:11:59.724Z,5.60
2018-03-21T21:14:27.196Z,6.53
2018-03-21T21:16:55.423Z,6.07
2018-03-21T21:19:22.907Z,5.77
2018-03-21T21:21:50.377Z,6.33
2018-03-21T21:24:17.839Z,5.97
2018-03-21T21:26:46.076Z,7.00
2018-03-21T21:29:13.554Z,6.03
2018-03-21T21:31:41.017Z,6.73
2018-03-21T21:34:08.492Z,6.87
2018-03-21T21:36:36.716Z,7.90
2018-03-21T21:39:04.209Z,7.57
2018-03-21T21:41:31.665Z,8.27
2018-03-21T21:43:59.122Z,8.10
2018-03-21T21:46:26.609Z,8.30
2018-03-21T21:48:54.837Z,8.20
2018-03-21T21:51:22.323Z,8.80
2018-03-21T21:53:49.773Z,9.47
2018-03-21T21:56:17.266Z,8.43
2018-03-21T21:58:44.725Z,8.67
2018-03-21T22:01:12.200Z,8.70
2018-03-21T22:03:39.657Z,9.90
2018-03-21T22:06:07.125Z,9.20
2018-03-21T22:08:34.579Z,9.13
2018-03-21T22:11:02.048Z,8.97
2018-03-21T22:13:29.518Z,9.50
2018-03-21T22:15:56.985Z,9.63
2018-03-21T22:18:24.441Z,8.77
2018-03-21T22:20:51.912Z,8.20
2018-03-21T22:23:19.371Z,7.10
2018-03-21T22:25:46.845Z,8.27
2018-03-21T22:28:15.066Z,6.93
2018-03-21T22:30:42.544Z,7.03
2018-03-21T22:33:10.012Z,7.80
2018-03-21T22:35:37.469Z,7.83
2018-03-21T22:38:04.936Z,6.67
2018-03-21T22:40:33.169Z,7.23
2018-03-21T22:43:00.641Z,7.03
2018-03-21T22:45:28.091Z,7.50
2018-03-21T22:47:55.565Z,6.40
2018-03-21T22:50:23.018Z,8.40
2018-03-21T22:52:50.497Z,8.17
2018-03-21T22:55:17.955Z,9.30
2018-03-21T22:57:46.196Z,8.87
2018-03-21T23:00:13.652Z,8.70
2018-03-21T23:02:41.131Z,8.27
2018-03-21T23:05:08.594Z,7.73
2018-03-21T23:07:36.061Z,7.60
2018-03-21T23:10:04.295Z,5.87
2018-03-21T23:12:31.768Z,5.97
2018-03-21T23:14:59.250Z,6.63
2018-03-21T23:17:26.712Z,6.47
2018-03-21T23:19:54.166Z,6.63
2018-03-21T23:22:21.620Z,6.10
2018-03-21T23:24:49.120Z,7.10
2018-03-21T23:27:16.564Z,6.80
2018-03-21T23:29:44.039Z,6.23
2018-03-21T23:32:11.502Z,6.20
2018-03-21T23:34:38.985Z,7.60
2018-03-21T23:37:06.464Z,6.63
2018-03-21T23:39:33.950Z,6.20
2018-03-21T23:42:02.174Z,5.50
2018-03-21T23:44:29.646Z,5.83
2018-03-21T23:46:57.109Z,5.17
2018-03-21T23:49:24.577Z,5.63
2018-03-21T23:51:52.050Z,6.00
2018-03-21T23:54:20.296Z,5.90
2018-03-21T23:56:47.762Z,5.20
2018-03-21T23:59:15.237Z,6.40
